createdAt,value
2022-08-12T00:00:23.884Z,100077.70
2022-08-12T00:02:02.757Z,100077.47
2022-08-12T00:02:31.685Z,100073.73
2022-08-12T00:03:34.194Z,100075.80
2022-08-12T00:04:37.761Z,100076.15
2022-08-12T00:06:04.122Z,100067.23
2022-08-12T00:06:47.886Z,100075.29
2022-08-12T00:07:51.688Z,100068.32
2022-08-12T00:08:53.851Z,100074.06
2022-08-12T00:09:56.655Z,100062.53
2022-08-12T00:10:59.282Z,100078.16
2022-08-12T00:12:03.831Z,100064.13
2022-08-12T00:13:06.871Z,100065.22
2022-08-12T00:14:09.322Z,100069.56
2022-08-12T00:15:14.975Z,100079.20
2022-08-12T00:16:18.667Z,100070.05
2022-08-12T00:17:23.270Z,100074.15
2022-08-12T00:18:29.808Z,100076.66
2022-08-12T00:19:32.206Z,100073.19
2022-08-12T00:20:37.503Z,100072.46
2022-08-12T00:21:40.615Z,100075.11
2022-08-12T00:22:44.099Z,100074.28
2022-08-12T00:23:46.264Z,100078.47
2022-08-12T00:24:48.425Z,100082.89
2022-08-12T00:26:23.131Z,100074.15
2022-08-12T00:26:58.408Z,100071.73
2022-08-12T00:28:01.901Z,100072.46
2022-08-12T00:29:04.938Z,100071.24
2022-08-12T00:30:11.206Z,100074.37
2022-08-12T00:31:13.860Z,100073.65
2022-08-12T00:32:54.301Z,100064.04
2022-08-12T00:33:23.436Z,100071.51
2022-08-12T00:34:31.278Z,100076.79
2022-08-12T00:35:36.709Z,100068.60
2022-08-12T00:36:39.285Z,100066.91
2022-08-12T00:37:42.997Z,100069.23
2022-08-12T00:38:45.098Z,100070.19
2022-08-12T00:39:48.309Z,100072.83
2022-08-12T00:40:50.980Z,100077.52
2022-08-12T00:41:56.746Z,100079.66
2022-08-12T00:42:59.171Z,100074.52
2022-08-12T00:44:04.639Z,100068.14
2022-08-12T00:45:07.770Z,100074.38
2022-08-12T00:46:10.264Z,100066.72
2022-08-12T00:47:24.529Z,100072.00
2022-08-12T00:48:19.851Z,100071.88
2022-08-12T00:49:23.540Z,100074.15
2022-08-12T00:50:29.348Z,100075.47
2022-08-12T00:51:32.370Z,100072.50
2022-08-12T00:52:35.735Z,100070.55
2022-08-12T00:53:38.586Z,100085.57
2022-08-12T00:54:46.946Z,100079.92
2022-08-12T00:55:53.644Z,100079.06
2022-08-12T00:56:58.468Z,100080.13
2022-08-12T00:58:04.187Z,100090.95
2022-08-12T00:59:08.832Z,100091.41
2022-08-12T01:00:21.216Z,100087.22
2022-08-12T01:01:24.491Z,100080.88
2022-08-12T01:02:30.626Z,100081.84
2022-08-12T01:03:35.918Z,100080.16
2022-08-12T01:04:40.154Z,100091.68
2022-08-12T01:05:44.963Z,100077.52
2022-08-12T01:06:51.148Z,100084.98
2022-08-12T01:07:53.628Z,100090.59
2022-08-12T01:08:55.713Z,100084.25
2022-08-12T01:09:58.582Z,100080.03
2022-08-12T01:11:00.880Z,100072.00
2022-08-12T01:12:04.565Z,100077.28
2022-08-12T01:13:19.379Z,100078.70
2022-08-12T01:14:13.567Z,100082.07
2022-08-12T01:15:17.742Z,100083.98
2022-08-12T01:16:21.662Z,100077.02
2022-08-12T01:17:25.330Z,100073.33
2022-08-12T01:18:33.907Z,100073.33
2022-08-12T01:19:36.816Z,100075.83
2022-08-12T01:20:48.597Z,100073.95
2022-08-12T01:22:17.384Z,100080.78
2022-08-12T01:23:35.115Z,100076.92
2022-08-12T01:24:59.278Z,100077.91
2022-08-12T01:26:07.508Z,100072.03
2022-08-12T01:27:12.815Z,100072.48
2022-08-12T01:28:17.412Z,100074.90
2022-08-12T01:29:23.879Z,100070.12
2022-08-12T01:30:29.265Z,100069.16
2022-08-12T01:31:34.605Z,100078.99
2022-08-12T01:32:39.525Z,100075.76
2022-08-12T01:34:28.591Z,100081.99
2022-08-12T01:35:15.197Z,100079.45
2022-08-12T01:36:20.949Z,100075.49
2022-08-12T01:37:25.624Z,100078.04
2022-08-12T01:38:31.421Z,100068.17
2022-08-12T01:40:34.041Z,100072.95
2022-08-12T01:41:00.066Z,100066.49
2022-08-12T01:42:05.910Z,100069.27
2022-08-12T01:43:11.577Z,100069.49
2022-08-12T01:44:14.970Z,100075.59
2022-08-12T01:45:22.347Z,100073.45
2022-08-12T01:46:40.678Z,100076.09
2022-08-12T01:47:52.262Z,100072.23
2022-08-12T01:49:00.673Z,100076.79
2022-08-12T01:50:09.130Z,100078.20
2022-08-12T01:52:15.106Z,100073.78
2022-08-12T01:52:57.495Z,100081.90
2022-08-12T01:54:04.224Z,100094.64
2022-08-12T01:55:08.109Z,100091.14
2022-08-12T01:56:12.582Z,100089.73
2022-08-12T01:57:58.490Z,100098.11
2022-08-12T01:58:41.316Z,100098.44
2022-08-12T01:59:59.301Z,100092.41
2022-08-12T02:01:08.342Z,100098.05
2022-08-12T02:02:14.083Z,100092.25
2022-08-12T02:03:39.196Z,100086.45
2022-08-12T02:05:18.593Z,100079.41
2022-08-12T02:06:28.338Z,100085.71
2022-08-12T02:07:56.801Z,100077.97
2022-08-12T02:09:01.884Z,100082.53
2022-08-12T02:11:29.367Z,100073.61
2022-08-12T02:12:35.203Z,100085.54
2022-08-12T02:13:50.333Z,100085.17
2022-08-12T02:14:59.502Z,100081.48
2022-08-12T02:16:22.450Z,100079.20
2022-08-12T02:17:55.314Z,100081.71
2022-08-12T02:18:59.762Z,100084.25
2022-08-12T02:20:25.345Z,100087.68
2022-08-12T02:21:39.049Z,100091.28
2022-08-12T02:22:43.795Z,100097.92
2022-08-12T02:23:47.408Z,100102.11
2022-08-12T02:24:51.892Z,100098.38
2022-08-12T02:25:57.615Z,100104.03
2022-08-12T02:27:01.300Z,100104.63
2022-08-12T02:28:07.751Z,100110.00
2022-08-12T02:29:08.819Z,100097.61
2022-08-12T02:30:16.857Z,100106.08
2022-08-12T02:31:19.589Z,100098.64
2022-08-12T02:32:21.843Z,100090.81
2022-08-12T02:33:24.818Z,100090.63
2022-08-12T02:34:28.822Z,100088.95
2022-08-12T02:35:35.040Z,100080.58
2022-08-12T02:36:39.724Z,100087.08
2022-08-12T02:37:43.392Z,100088.04
2022-08-12T02:38:48.277Z,100096.70
2022-08-12T02:39:53.127Z,100099.60
2022-08-12T02:40:58.148Z,100096.00
2022-08-12T02:42:04.668Z,100095.64
2022-08-12T02:43:30.209Z,100096.23
2022-08-12T02:44:36.689Z,100093.10
2022-08-12T02:45:42.958Z,100092.14
2022-08-12T02:46:47.861Z,100089.50
2022-08-12T02:47:58.564Z,100086.62
2022-08-12T02:49:06.397Z,100091.19
2022-08-12T02:50:10.534Z,100087.72
2022-08-12T02:51:16.217Z,100081.97
2022-08-12T02:52:19.150Z,100081.97
2022-08-12T02:53:22.398Z,100079.72
2022-08-12T02:54:25.244Z,100078.99
2022-08-12T02:55:34.788Z,100083.41
2022-08-12T02:56:38.251Z,100083.41
2022-08-12T02:57:41.675Z,100089.55
2022-08-12T02:58:46.182Z,100090.98
2022-08-12T02:59:50.117Z,100082.56
2022-08-12T03:00:53.013Z,100083.75
2022-08-12T03:01:57.980Z,100083.75
2022-08-12T03:03:05.432Z,100088.94
2022-08-12T03:04:20.088Z,100090.23
2022-08-12T03:05:16.435Z,100091.91
2022-08-12T03:06:23.789Z,100085.41
2022-08-12T03:07:52.378Z,100086.13
2022-08-12T03:08:39.508Z,100083.39
2022-08-12T03:11:07.860Z,100085.41
2022-08-12T03:12:16.327Z,100081.61
2022-08-12T03:13:18.664Z,100081.86
2022-08-12T03:14:23.234Z,100075.85
2022-08-12T03:15:25.515Z,100079.22
2022-08-12T03:16:33.098Z,100076.71
2022-08-12T03:17:45.086Z,100077.54
2022-08-12T03:18:49.290Z,100074.31
2022-08-12T03:20:10.296Z,100063.98
2022-08-12T03:20:57.699Z,100065.39
2022-08-12T03:22:09.179Z,100067.70
2022-08-12T03:23:28.627Z,100067.32
2022-08-12T03:24:19.607Z,100064.44
2022-08-12T03:25:24.537Z,100063.87
2022-08-12T03:26:29.474Z,100066.00
2022-08-12T03:27:31.745Z,100075.27
2022-08-12T03:28:35.327Z,100069.61
2022-08-12T03:29:49.864Z,100070.33
2022-08-12T03:30:44.559Z,100075.13
2022-08-12T03:31:48.047Z,100078.97
2022-08-12T03:32:52.091Z,100085.94
2022-08-12T03:34:03.118Z,100084.59
2022-08-12T03:35:07.604Z,100082.33
2022-08-12T03:36:11.415Z,100085.45
2022-08-12T03:37:15.424Z,100082.09
2022-08-12T03:38:22.297Z,100086.64
2022-08-12T03:39:36.209Z,100081.77
2022-08-12T03:40:39.018Z,100077.77
2022-08-12T03:42:00.750Z,100081.13
2022-08-12T03:43:05.947Z,100083.53
2022-08-12T03:44:25.656Z,100081.61
2022-08-12T03:45:31.563Z,100075.59
2022-08-12T03:46:38.591Z,100074.05
2022-08-12T03:48:13.272Z,100075.85
2022-08-12T03:49:16.632Z,100078.73
2022-08-12T03:50:21.026Z,100080.65
2022-08-12T03:51:23.871Z,100093.25
2022-08-12T03:52:26.077Z,100084.13
2022-08-12T03:53:30.281Z,100084.00
2022-08-12T03:54:32.755Z,100086.16
2022-08-12T03:55:36.214Z,100089.05
2022-08-12T03:56:40.235Z,100087.23
2022-08-12T03:57:42.801Z,100082.56
2022-08-12T03:58:47.309Z,100089.30
2022-08-12T03:59:49.773Z,100096.97
2022-08-12T04:00:53.032Z,100080.41
2022-08-12T04:01:56.180Z,100088.09
2022-08-12T04:02:58.394Z,100084.24
2022-08-12T04:04:01.701Z,100080.89
2022-08-12T04:05:05.321Z,100081.63
2022-08-12T04:06:10.505Z,100074.89
2022-08-12T04:07:14.393Z,100079.70
2022-08-12T04:08:18.647Z,100086.53
2022-08-12T04:09:21.952Z,100083.66
2022-08-12T04:10:30.098Z,100083.06
2022-08-12T04:11:35.925Z,100083.41
2022-08-12T04:12:40.130Z,100093.84
2022-08-12T04:13:42.401Z,100087.13
2022-08-12T04:14:44.550Z,100087.73
2022-08-12T04:15:47.439Z,100083.77
2022-08-12T04:16:50.509Z,100084.73
2022-08-12T04:18:07.478Z,100083.78
2022-08-12T04:18:58.099Z,100079.72
2022-08-12T04:20:00.282Z,100078.04
2022-08-12T04:21:03.853Z,100074.17
2022-08-12T04:22:06.373Z,100069.38
2022-08-12T04:23:16.836Z,100069.98
2022-08-12T04:24:19.740Z,100069.72
2022-08-12T04:25:24.351Z,100082.56
2022-08-12T04:26:28.558Z,100078.84
2022-08-12T04:27:32.080Z,100087.84
2022-08-12T04:28:34.916Z,100076.57
2022-08-12T04:30:21.193Z,100069.84
2022-08-12T04:30:43.547Z,100061.95
2022-08-12T04:31:45.698Z,100070.09
2022-08-12T04:32:51.879Z,100063.39
2022-08-12T04:33:54.189Z,100060.02
2022-08-12T04:34:56.401Z,100062.66
2022-08-12T04:35:58.894Z,100080.65
2022-08-12T04:37:01.361Z,100079.20
2022-08-12T04:38:04.170Z,100079.22
2022-08-12T04:39:09.187Z,100080.19
2022-08-12T04:40:13.705Z,100072.96
2022-08-12T04:41:15.919Z,100069.33
2022-08-12T04:42:18.227Z,100066.91
2022-08-12T04:43:59.618Z,100068.73
2022-08-12T04:44:24.890Z,100074.84
2022-08-12T04:45:27.773Z,100084.72
2022-08-12T04:46:34.524Z,100087.95
2022-08-12T04:47:38.014Z,100093.56
2022-08-12T04:48:40.638Z,100079.98
2022-08-12T04:49:45.961Z,100079.98
2022-08-12T04:50:48.266Z,100093.05
2022-08-12T04:51:55.214Z,100081.20
2022-08-12T04:52:56.213Z,100084.43
2022-08-12T04:53:58.328Z,100078.08
2022-08-12T04:55:01.109Z,100081.97
2022-08-12T04:56:04.143Z,100074.50
2022-08-12T04:57:06.858Z,100080.05
2022-08-12T04:58:10.647Z,100072.50
2022-08-12T04:59:14.697Z,100063.47
2022-08-12T05:00:18.749Z,100060.38
2022-08-12T05:01:20.957Z,100057.25
2022-08-12T05:02:23.284Z,100062.23
2022-08-12T05:03:26.844Z,100064.04
2022-08-12T05:04:29.737Z,100055.80
2022-08-12T05:05:36.299Z,100063.80
2022-08-12T05:06:38.355Z,100066.91
2022-08-12T05:07:46.519Z,100070.73
2022-08-12T05:08:44.462Z,100073.59
2022-08-12T05:10:00.161Z,100069.72
2022-08-12T05:10:51.073Z,100062.89
2022-08-12T05:11:54.232Z,100066.84
2022-08-12T05:12:59.493Z,100067.02
2022-08-12T05:14:01.743Z,100064.14
2022-08-12T05:15:19.464Z,100059.09
2022-08-12T05:16:10.545Z,100063.20
2022-08-12T05:17:14.584Z,100063.61
2022-08-12T05:18:19.444Z,100064.30
2022-08-12T05:19:22.722Z,100065.26
2022-08-12T05:20:26.674Z,100078.95
2022-08-12T05:21:28.951Z,100073.41
2022-08-12T05:22:31.064Z,100074.06
2022-08-12T05:23:39.594Z,100069.39
2022-08-12T05:24:41.715Z,100071.08
2022-08-12T05:25:45.917Z,100069.02
2022-08-12T05:26:48.628Z,100066.95
2022-08-12T05:27:58.413Z,100059.74
2022-08-12T05:28:57.552Z,100063.48
2022-08-12T05:30:06.335Z,100064.31
2022-08-12T05:31:04.835Z,100066.23
2022-08-12T05:32:08.631Z,100066.51
2022-08-12T05:33:12.487Z,100070.70
2022-08-12T05:34:14.994Z,100060.95
2022-08-12T05:35:17.150Z,100067.67
2022-08-12T05:36:21.360Z,100064.76
2022-08-12T05:37:23.509Z,100070.77
2022-08-12T05:38:25.564Z,100067.87
2022-08-12T05:39:27.679Z,100066.36
2022-08-12T05:40:30.397Z,100062.65
2022-08-12T05:41:34.196Z,100066.64
2022-08-12T05:42:36.591Z,100066.26
2022-08-12T05:43:38.689Z,100067.87
2022-08-12T05:44:41.069Z,100062.59
2022-08-12T05:45:45.020Z,100058.70
2022-08-12T05:46:48.356Z,100065.23
2022-08-12T05:47:53.786Z,100060.11
2022-08-12T05:48:56.630Z,100065.59
2022-08-12T05:49:59.456Z,100063.14
2022-08-12T05:51:02.004Z,100059.53
2022-08-12T05:52:04.656Z,100066.95
2022-08-12T05:53:06.820Z,100070.99
2022-08-12T05:54:10.513Z,100074.60
2022-08-12T05:55:12.741Z,100074.36
2022-08-12T05:56:34.431Z,100070.46
2022-08-12T05:57:37.259Z,100065.59
2022-08-12T05:58:39.418Z,100065.27
2022-08-12T05:59:41.491Z,100065.65
2022-08-12T06:00:44.049Z,100078.73
2022-08-12T06:02:09.175Z,100081.38
2022-08-12T06:02:52.688Z,100082.69
2022-08-12T06:03:55.658Z,100074.88
2022-08-12T06:04:57.796Z,100082.96
2022-08-12T06:06:00.916Z,100078.05
2022-08-12T06:08:00.207Z,100088.11
2022-08-12T06:08:07.689Z,100092.16
2022-08-12T06:09:09.876Z,100093.17
2022-08-12T06:10:13.196Z,100090.61
2022-08-12T06:11:16.159Z,100076.12
2022-08-12T06:12:18.417Z,100073.63
2022-08-12T06:13:25.753Z,100078.30
2022-08-12T06:14:24.985Z,100087.64
2022-08-12T06:15:29.824Z,100099.52
2022-08-12T06:16:32.170Z,100079.09
2022-08-12T06:17:35.366Z,100075.23
2022-08-12T06:18:37.714Z,100077.02
2022-08-12T06:20:22.849Z,100086.08
2022-08-12T06:20:49.848Z,100087.75
2022-08-12T06:21:53.878Z,100092.98
2022-08-12T06:22:56.457Z,100086.11
2022-08-12T06:23:59.788Z,100068.29
2022-08-12T06:25:02.748Z,100081.53
2022-08-12T06:26:06.442Z,100073.73
2022-08-12T06:27:09.215Z,100077.37
2022-08-12T06:28:16.062Z,100075.86
2022-08-12T06:30:07.041Z,100078.91
2022-08-12T06:30:36.936Z,100077.97
2022-08-12T06:31:30.335Z,100077.17
2022-08-12T06:32:32.417Z,100071.03
2022-08-12T06:33:55.894Z,100074.55
2022-08-12T06:35:24.895Z,100073.29
2022-08-12T06:35:48.506Z,100067.17
2022-08-12T06:36:50.844Z,100067.17
2022-08-12T06:37:57.094Z,100068.59
2022-08-12T06:38:58.438Z,100074.60
2022-08-12T06:40:03.892Z,100076.14
2022-08-12T06:41:05.457Z,100075.31
2022-08-12T06:42:42.053Z,100084.50
2022-08-12T06:43:11.668Z,100088.42
2022-08-12T06:44:14.794Z,100079.34
2022-08-12T06:45:18.644Z,100075.87
2022-08-12T06:46:27.501Z,100081.88
2022-08-12T06:47:30.748Z,100078.66
2022-08-12T06:48:33.823Z,100077.23
2022-08-12T06:49:35.955Z,100077.54
2022-08-12T06:50:40.213Z,100079.22
2022-08-12T06:51:56.146Z,100072.78
2022-08-12T06:52:47.484Z,100071.36
2022-08-12T06:53:49.791Z,100072.73
2022-08-12T06:54:51.888Z,100073.02
2022-08-12T06:55:57.549Z,100080.30
2022-08-12T06:57:14.340Z,100070.26
2022-08-12T06:58:10.400Z,100076.39
2022-08-12T06:59:10.149Z,100063.70
2022-08-12T07:00:14.550Z,100068.16
2022-08-12T07:01:16.877Z,100070.64
2022-08-12T07:02:20.093Z,100065.61
2022-08-12T07:03:23.656Z,100063.96
2022-08-12T07:04:36.343Z,100059.33
2022-08-12T07:05:30.661Z,100064.36
2022-08-12T07:06:32.978Z,100068.13
2022-08-12T07:07:34.958Z,100070.48
2022-08-12T07:08:37.958Z,100061.58
2022-08-12T07:10:01.226Z,100070.48
2022-08-12T07:10:48.620Z,100070.45
2022-08-12T07:11:51.128Z,100070.18
2022-08-12T07:12:53.831Z,100080.06
2022-08-12T07:14:11.899Z,100076.00
2022-08-12T07:15:00.727Z,100076.58
2022-08-12T07:16:06.776Z,100077.72
2022-08-12T07:17:09.481Z,100069.05
2022-08-12T07:18:12.424Z,100074.91
2022-08-12T07:19:14.678Z,100056.91
2022-08-12T07:20:50.318Z,100057.30
2022-08-12T07:21:25.053Z,100055.93
2022-08-12T07:22:29.654Z,100071.27
2022-08-12T07:23:33.461Z,100075.80
2022-08-12T07:24:37.967Z,100063.45
2022-08-12T07:25:41.861Z,100066.66
2022-08-12T07:26:44.627Z,100073.36
2022-08-12T07:27:46.908Z,100073.36
2022-08-12T07:28:49.464Z,100072.77
2022-08-12T07:30:03.636Z,100073.59
2022-08-12T07:30:56.838Z,100069.64
2022-08-12T07:31:58.999Z,100071.86
2022-08-12T07:33:01.949Z,100070.13
2022-08-12T07:34:05.566Z,100072.55
2022-08-12T07:35:09.364Z,100067.61
2022-08-12T07:36:13.657Z,100066.02
2022-08-12T07:37:15.955Z,100065.44
2022-08-12T07:38:20.577Z,100062.09
2022-08-12T07:39:26.034Z,100060.94
2022-08-12T07:40:30.496Z,100059.12
2022-08-12T07:41:33.490Z,100062.08
2022-08-12T07:42:36.782Z,100062.23
2022-08-12T07:43:45.444Z,100063.91
2022-08-12T07:44:51.811Z,100058.88
2022-08-12T07:45:56.169Z,100060.56
2022-08-12T07:46:58.796Z,100069.80
2022-08-12T07:48:01.227Z,100064.04
2022-08-12T07:49:09.873Z,100056.51
2022-08-12T07:50:14.581Z,100054.39
2022-08-12T07:51:25.223Z,100046.34
2022-08-12T07:52:23.678Z,100049.16
2022-08-12T07:53:25.663Z,100057.75
2022-08-12T07:54:27.677Z,100052.72
2022-08-12T07:55:29.772Z,100050.84
2022-08-12T07:56:32.000Z,100051.53
2022-08-12T07:57:35.419Z,100050.91
2022-08-12T07:58:41.989Z,100054.48
2022-08-12T07:59:43.637Z,100049.53
2022-08-12T08:00:46.700Z,100050.45
2022-08-12T08:01:49.249Z,100045.80
2022-08-12T08:02:52.489Z,100048.55
2022-08-12T08:03:55.738Z,100038.36
2022-08-12T08:04:57.861Z,100044.21
2022-08-12T08:06:00.055Z,100043.30
2022-08-12T08:07:02.167Z,100048.45
2022-08-12T08:08:18.726Z,100041.99
2022-08-12T08:09:23.056Z,100044.81
2022-08-12T08:10:25.497Z,100052.95
2022-08-12T08:11:28.081Z,100040.11
2022-08-12T08:12:31.241Z,100050.98
2022-08-12T08:13:33.978Z,100044.55
2022-08-12T08:14:36.864Z,100050.77
2022-08-12T08:16:01.715Z,100044.55
2022-08-12T08:16:44.968Z,100045.96
2022-08-12T08:17:59.897Z,100044.08
2022-08-12T08:19:03.020Z,100053.58
2022-08-12T08:20:08.085Z,100045.81
2022-08-12T08:21:10.548Z,100048.42
2022-08-12T08:22:12.651Z,100039.75
2022-08-12T08:23:17.359Z,100043.47
2022-08-12T08:24:19.953Z,100039.66
2022-08-12T08:25:36.165Z,100044.53
2022-08-12T08:26:26.905Z,100042.78
2022-08-12T08:27:32.676Z,100038.52
2022-08-12T08:28:35.321Z,100037.45
2022-08-12T08:29:38.818Z,100044.75
2022-08-12T08:30:43.360Z,100045.19
2022-08-12T08:31:47.845Z,100035.29
2022-08-12T08:32:50.194Z,100037.73
2022-08-12T08:34:05.329Z,100038.01
2022-08-12T08:34:59.101Z,100028.70
2022-08-12T08:36:02.036Z,100029.01
2022-08-12T08:37:07.797Z,100026.31
2022-08-12T08:38:17.627Z,100021.23
2022-08-12T08:39:19.784Z,100029.97
2022-08-12T08:40:22.828Z,100025.57
2022-08-12T08:42:15.371Z,100029.58
2022-08-12T08:42:32.461Z,100044.36
2022-08-12T08:43:44.272Z,100036.91
2022-08-12T08:44:39.143Z,100041.53
2022-08-12T08:45:41.596Z,100028.30
2022-08-12T08:46:44.057Z,100034.44
2022-08-12T08:47:47.542Z,100038.09
2022-08-12T08:48:56.417Z,100034.96
2022-08-12T08:49:58.056Z,100030.79
2022-08-12T08:51:04.373Z,100035.70
2022-08-12T08:52:08.247Z,100035.70
2022-08-12T08:53:10.667Z,100027.03
2022-08-12T08:54:13.423Z,100034.14
2022-08-12T08:55:18.735Z,100037.63
2022-08-12T08:56:20.568Z,100025.69
2022-08-12T08:57:22.686Z,100025.63
2022-08-12T08:58:26.715Z,100021.00
2022-08-12T08:59:29.015Z,100024.64
2022-08-12T09:00:31.952Z,100024.64
2022-08-12T09:01:38.067Z,100028.30
2022-08-12T09:02:38.259Z,100030.27
2022-08-12T09:05:07.832Z,100038.61
2022-08-12T09:05:11.867Z,100043.52
2022-08-12T09:09:13.478Z,100043.63
2022-08-12T09:10:32.441Z,100053.86
2022-08-12T09:12:06.804Z,100052.87
2022-08-12T09:12:27.589Z,100059.06
2022-08-12T09:13:29.388Z,100056.09
2022-08-12T09:14:32.359Z,100059.95
2022-08-12T09:15:36.252Z,100063.96
2022-08-12T09:16:42.661Z,100064.64
2022-08-12T09:18:55.965Z,100067.04
2022-08-12T09:19:58.453Z,100069.70
2022-08-12T09:21:02.720Z,100066.05
2022-08-12T09:22:05.307Z,100072.75
2022-08-12T09:23:59.789Z,100073.42
2022-08-12T09:24:16.330Z,100078.08
2022-08-12T09:25:25.264Z,100082.45
2022-08-12T09:26:29.478Z,100080.66
2022-08-12T09:28:04.342Z,100082.49
2022-08-12T09:28:37.242Z,100091.82
2022-08-12T09:30:11.094Z,100098.84
2022-08-12T09:30:45.028Z,100098.13
2022-08-12T09:32:03.658Z,100092.80
2022-08-12T09:33:04.440Z,100084.46
2022-08-12T09:34:25.965Z,100074.81
2022-08-12T09:35:01.489Z,100086.75
2022-08-12T09:36:05.632Z,100089.05
2022-08-12T09:37:18.629Z,100097.86
2022-08-12T09:38:25.547Z,100110.84
2022-08-12T09:40:03.159Z,100106.33
2022-08-12T09:41:03.860Z,100105.30
2022-08-12T09:42:09.513Z,100104.62
2022-08-12T09:42:56.820Z,100100.92
2022-08-12T09:43:53.807Z,100101.42
2022-08-12T09:45:17.647Z,100110.66
2022-08-12T09:46:06.169Z,100107.98
2022-08-12T09:47:03.237Z,100098.14
2022-08-12T09:48:07.628Z,100095.48
2022-08-12T09:49:13.427Z,100092.30
2022-08-12T09:50:20.348Z,100092.52
2022-08-12T09:51:22.582Z,100090.63
2022-08-12T09:52:24.330Z,100095.48
2022-08-12T09:53:35.999Z,100096.82
2022-08-12T09:54:35.430Z,100094.84
2022-08-12T09:56:05.496Z,100093.86
2022-08-12T09:57:00.036Z,100096.17
2022-08-12T09:58:45.413Z,100100.00
2022-08-12T09:59:00.344Z,100098.88
2022-08-12T10:00:13.281Z,100100.17
2022-08-12T10:01:06.292Z,100093.39
2022-08-12T10:02:45.267Z,100089.88
2022-08-12T10:03:32.619Z,100096.52
2022-08-12T10:04:20.486Z,100085.52
2022-08-12T10:05:23.086Z,100094.24
2022-08-12T10:06:31.799Z,100096.80
2022-08-12T10:07:40.034Z,100095.13
2022-08-12T10:08:39.790Z,100099.38
2022-08-12T10:09:57.348Z,100102.20
2022-08-12T10:10:50.757Z,100112.00
2022-08-12T10:12:07.789Z,100108.36
2022-08-12T10:13:08.320Z,100104.08
2022-08-12T10:14:03.807Z,100109.70
2022-08-12T10:15:08.150Z,100105.23
2022-08-12T10:16:25.382Z,100109.65
2022-08-12T10:17:30.646Z,100102.53
2022-08-12T10:18:35.761Z,100102.88
2022-08-12T10:19:38.247Z,100109.08
2022-08-12T10:20:40.815Z,100104.83
2022-08-12T10:21:43.075Z,100104.66
2022-08-12T10:22:57.577Z,100105.17
2022-08-12T10:23:59.876Z,100109.98
2022-08-12T10:25:17.394Z,100118.02
2022-08-12T10:26:38.035Z,100112.00
2022-08-12T10:27:17.228Z,100115.56
2022-08-12T10:28:25.181Z,100115.27
2022-08-12T10:30:03.331Z,100114.23
2022-08-12T10:30:40.394Z,100126.56
2022-08-12T10:32:19.722Z,100114.86
2022-08-12T10:32:45.079Z,100123.16
2022-08-12T10:33:55.051Z,100122.35
2022-08-12T10:34:53.826Z,100123.39
2022-08-12T10:35:52.560Z,100116.30
2022-08-12T10:37:00.469Z,100112.95
2022-08-12T10:38:35.854Z,100112.27
2022-08-12T10:39:44.267Z,100110.97
2022-08-12T10:40:20.521Z,100118.67
2022-08-12T10:41:21.539Z,100118.23
2022-08-12T10:42:29.401Z,100118.23
2022-08-12T10:43:30.101Z,100110.06
2022-08-12T10:44:35.370Z,100110.06
2022-08-12T10:47:00.185Z,100113.81
2022-08-12T10:48:21.609Z,100108.99
2022-08-12T10:50:04.662Z,100120.17
2022-08-12T10:50:23.780Z,100113.16
2022-08-12T10:52:03.553Z,100104.51
2022-08-12T10:52:34.362Z,100107.46
2022-08-12T10:53:44.182Z,100105.50
2022-08-12T10:54:39.280Z,100105.86
2022-08-12T10:55:43.790Z,100103.55
2022-08-12T10:56:46.573Z,100107.22
2022-08-12T10:58:14.538Z,100100.88
2022-08-12T10:58:55.626Z,100109.02
2022-08-12T11:00:30.604Z,100108.98
2022-08-12T11:01:25.859Z,100105.84
2022-08-12T11:04:22.639Z,100104.84
2022-08-12T11:04:26.118Z,100113.16
2022-08-12T11:04:34.280Z,100113.30
2022-08-12T11:07:06.815Z,100107.12
2022-08-12T11:07:09.187Z,100106.06
2022-08-12T11:08:37.663Z,100109.03
2022-08-12T11:08:43.494Z,100107.63
2022-08-12T11:09:56.030Z,100106.89
2022-08-12T11:10:46.768Z,100104.91
2022-08-12T11:12:35.216Z,100105.03
2022-08-12T11:12:59.703Z,100102.20
2022-08-12T11:14:00.019Z,100106.53
2022-08-12T11:15:19.480Z,100100.17
2022-08-12T11:16:21.865Z,100098.48
2022-08-12T11:17:43.095Z,100088.39
2022-08-12T11:18:19.084Z,100088.73
2022-08-12T11:19:22.291Z,100086.06
2022-08-12T11:20:30.823Z,100088.89
2022-08-12T11:21:57.106Z,100084.03
2022-08-12T11:22:33.755Z,100079.34
2022-08-12T11:23:37.057Z,100079.34
2022-08-12T11:24:39.897Z,100075.98
2022-08-12T11:25:57.760Z,100080.69
2022-08-12T11:26:48.914Z,100079.53
2022-08-12T11:27:51.794Z,100080.38
2022-08-12T11:28:59.195Z,100083.07
2022-08-12T11:30:01.668Z,100084.75
2022-08-12T11:31:05.538Z,100095.20
2022-08-12T11:32:07.825Z,100095.40
2022-08-12T11:33:24.307Z,100090.07
2022-08-12T11:34:53.757Z,100085.73
2022-08-12T11:35:21.123Z,100090.12
2022-08-12T11:36:24.075Z,100082.00
2022-08-12T11:37:28.377Z,100080.69
2022-08-12T11:38:31.048Z,100081.54
2022-08-12T11:40:42.644Z,100084.97
2022-08-12T11:41:42.952Z,100076.62
2022-08-12T11:42:46.267Z,100079.22
2022-08-12T11:43:50.558Z,100083.20
2022-08-12T11:44:53.688Z,100082.05
2022-08-12T11:45:56.778Z,100092.52
2022-08-12T11:46:59.322Z,100084.87
2022-08-12T11:48:01.816Z,100090.72
2022-08-12T11:49:05.330Z,100088.52
2022-08-12T11:50:11.817Z,100089.86
2022-08-12T11:51:13.425Z,100089.23
2022-08-12T11:52:17.461Z,100090.39
2022-08-12T11:53:59.287Z,100086.74
2022-08-12T11:54:24.321Z,100085.92
2022-08-12T11:55:27.498Z,100084.80
2022-08-12T11:56:38.334Z,100084.03
2022-08-12T11:58:15.220Z,100093.01
2022-08-12T12:01:58.475Z,100093.01
2022-08-12T12:01:58.505Z,100107.12
2022-08-12T12:02:06.981Z,100097.84
2022-08-12T12:03:09.281Z,100103.69
2022-08-12T12:04:11.475Z,100098.24
2022-08-12T12:05:14.558Z,100107.63
2022-08-12T12:06:19.055Z,100110.33
2022-08-12T12:07:22.151Z,100112.00
2022-08-12T12:08:37.500Z,100114.02
2022-08-12T12:09:30.973Z,100110.71
2022-08-12T12:10:35.754Z,100116.08
2022-08-12T12:11:48.885Z,100113.07
2022-08-12T12:12:49.788Z,100109.95
2022-08-12T12:14:06.369Z,100114.13
2022-08-12T12:14:54.796Z,100114.44
2022-08-12T12:15:56.199Z,100114.75
2022-08-12T12:17:00.407Z,100120.90
2022-08-12T12:18:02.968Z,100113.89
2022-08-12T12:19:05.131Z,100121.44
2022-08-12T12:20:11.399Z,100120.48
2022-08-12T12:21:14.465Z,100120.48
2022-08-12T12:22:23.714Z,100115.48
2022-08-12T12:23:29.176Z,100112.17
2022-08-12T12:24:26.315Z,100113.81
2022-08-12T12:25:59.396Z,100112.80
2022-08-12T12:26:36.961Z,100117.78
2022-08-12T12:28:05.711Z,100106.84
2022-08-12T12:28:55.126Z,100113.33
2022-08-12T12:30:19.392Z,100115.83
2022-08-12T12:31:04.041Z,100108.50
2022-08-12T12:32:10.321Z,100106.52